SWA760 KLAX-KPHX
Flight info
| Callsign | SWA760 |
|---|---|
| Flight time | 1h 4m |
| Altitude | 33000 |
| Route | DOTSS2 CNERY BLH HYDRR1 |
| Aircraft | B38M/M-SDE1FGHILORVWXY/HB1 |
Departure
| Time | 2026-05-05 16:50 |
|---|---|
| Airport | Los Angeles International Airport (KLAX) |
Arrival
| Time | 2026-05-05 17:54 |
|---|---|
| Airport | Phoenix Sky Harbor International Airport (KPHX) |
| Time | Latitude | Longitude | Altitude | Speed | Heading |
|---|---|---|---|---|---|
| 2026-05-05 15:54 | 33.94623 | -118.40004 | 94 ft | 0 kts | 165° |
| 2026-05-05 16:15 | 33.94631 | -118.40007 | 97 ft | 2 kts | 165° |
| 2026-05-05 16:15 | 33.94646 | -118.40013 | 96 ft | 1 kts | 152° |
| 2026-05-05 16:16 | 33.94656 | -118.40022 | 95 ft | 1 kts | 119° |
| 2026-05-05 16:16 | 33.94659 | -118.40028 | 94 ft | 0 kts | 96° |
| 2026-05-05 16:38 | 33.94623 | -118.40004 | 94 ft | 1 kts | 165° |
| 2026-05-05 16:45 | 33.94626 | -118.40006 | 94 ft | 2 kts | 165° |
| 2026-05-05 16:45 | 33.94642 | -118.40011 | 94 ft | 2 kts | 148° |
| 2026-05-05 16:46 | 33.94652 | -118.40025 | 94 ft | 2 kts | 108° |
| 2026-05-05 16:46 | 33.94654 | -118.40032 | 94 ft | 0 kts | 91° |
| 2026-05-05 16:47 | 33.94655 | -118.40029 | 94 ft | 1 kts | 85° |
| 2026-05-05 16:47 | 33.94673 | -118.40012 | 94 ft | 8 kts | 11° |
| 2026-05-05 16:48 | 33.94768 | -118.40007 | 95 ft | 18 kts | 2° |
| 2026-05-05 16:48 | 33.94839 | -118.40046 | 94 ft | 9 kts | 315° |
| 2026-05-05 16:48 | 33.94909 | -118.40046 | 96 ft | 14 kts | 52° |
| 2026-05-05 16:48 | 33.94956 | -118.39932 | 94 ft | 16 kts | 30° |
| 2026-05-05 16:49 | 33.95020 | -118.39935 | 95 ft | 10 kts | 321° |
| 2026-05-05 16:49 | 33.95030 | -118.40062 | 95 ft | 37 kts | 263° |
| 2026-05-05 16:49 | 33.94959 | -118.40733 | 100 ft | 123 kts | 263° |
| 2026-05-05 16:49 | 33.94832 | -118.41925 | 629 ft | 154 kts | 263° |
| 2026-05-05 16:50 | 33.94688 | -118.43216 | 1673 ft | 150 kts | 262° |
| 2026-05-05 16:50 | 33.94565 | -118.44445 | 2364 ft | 159 kts | 264° |
| 2026-05-05 16:50 | 33.94436 | -118.45818 | 2842 ft | 173 kts | 264° |
| 2026-05-05 16:50 | 33.94352 | -118.47351 | 3165 ft | 202 kts | 270° |
| 2026-05-05 16:51 | 33.94304 | -118.49202 | 3286 ft | 240 kts | 268° |
| 2026-05-05 16:51 | 33.94181 | -118.51264 | 3960 ft | 252 kts | 263° |
| 2026-05-05 16:51 | 33.93998 | -118.53385 | 4823 ft | 257 kts | 266° |
| 2026-05-05 16:51 | 33.93857 | -118.55560 | 5670 ft | 262 kts | 266° |
| 2026-05-05 16:52 | 33.93695 | -118.57764 | 6486 ft | 267 kts | 265° |
| 2026-05-05 16:52 | 33.93492 | -118.60002 | 7281 ft | 271 kts | 260° |
| 2026-05-05 16:52 | 33.92726 | -118.62074 | 8093 ft | 277 kts | 234° |
| 2026-05-05 16:52 | 33.91246 | -118.63566 | 8911 ft | 284 kts | 207° |
| 2026-05-05 16:53 | 33.89315 | -118.64116 | 9744 ft | 291 kts | 182° |
| 2026-05-05 16:53 | 33.87278 | -118.64023 | 10452 ft | 297 kts | 178° |
| 2026-05-05 16:53 | 33.85172 | -118.63804 | 10931 ft | 311 kts | 174° |
| 2026-05-05 16:53 | 33.83076 | -118.62949 | 11304 ft | 331 kts | 150° |
| 2026-05-05 16:54 | 33.81109 | -118.61414 | 11851 ft | 341 kts | 146° |
| 2026-05-05 16:54 | 33.79180 | -118.59769 | 12511 ft | 348 kts | 146° |
| 2026-05-05 16:54 | 33.77179 | -118.58101 | 13201 ft | 350 kts | 147° |
| 2026-05-05 16:54 | 33.75207 | -118.56520 | 13204 ft | 333 kts | 147° |
| 2026-05-05 16:55 | 33.73315 | -118.55008 | 13170 ft | 321 kts | 147° |
| 2026-05-05 16:55 | 33.71479 | -118.53515 | 13157 ft | 320 kts | 147° |
| 2026-05-05 16:55 | 33.69814 | -118.51651 | 13221 ft | 341 kts | 124° |
| 2026-05-05 16:55 | 33.68764 | -118.49045 | 13780 ft | 348 kts | 111° |
| 2026-05-05 16:56 | 33.67956 | -118.46295 | 14351 ft | 352 kts | 108° |
| 2026-05-05 16:56 | 33.67198 | -118.43492 | 14934 ft | 354 kts | 108° |
| 2026-05-05 16:56 | 33.66380 | -118.40693 | 15519 ft | 357 kts | 110° |
| 2026-05-05 16:56 | 33.65519 | -118.37892 | 16091 ft | 359 kts | 110° |
| 2026-05-05 16:57 | 33.64695 | -118.35061 | 16685 ft | 360 kts | 105° |
| 2026-05-05 16:57 | 33.64422 | -118.32118 | 17280 ft | 362 kts | 91° |
| 2026-05-05 16:57 | 33.64414 | -118.31098 | 17486 ft | 363 kts | 90° |
| 2026-05-05 16:58 | 33.64481 | -118.22461 | 18834 ft | 379 kts | 90° |
| 2026-05-05 16:58 | 33.64463 | -118.19321 | 19283 ft | 383 kts | 90° |
| 2026-05-05 16:58 | 33.64459 | -118.16104 | 19760 ft | 387 kts | 90° |
| 2026-05-05 16:58 | 33.64467 | -118.12864 | 20268 ft | 391 kts | 90° |
| 2026-05-05 16:59 | 33.64469 | -118.09588 | 20802 ft | 394 kts | 90° |
| 2026-05-05 16:59 | 33.64463 | -118.06287 | 21393 ft | 398 kts | 90° |
| 2026-05-05 16:59 | 33.64454 | -118.02951 | 21990 ft | 401 kts | 90° |
| 2026-05-05 16:59 | 33.64454 | -117.99593 | 22483 ft | 404 kts | 90° |
| 2026-05-05 17:00 | 33.64453 | -117.96209 | 22947 ft | 407 kts | 90° |
| 2026-05-05 17:00 | 33.64447 | -117.92798 | 23402 ft | 410 kts | 90° |
| 2026-05-05 17:00 | 33.64436 | -117.89368 | 23805 ft | 413 kts | 90° |
| 2026-05-05 17:00 | 33.64427 | -117.85958 | 24155 ft | 416 kts | 90° |
| 2026-05-05 17:01 | 33.64419 | -117.82476 | 24510 ft | 419 kts | 90° |
| 2026-05-05 17:01 | 33.64231 | -117.78984 | 24859 ft | 421 kts | 102° |
| 2026-05-05 17:01 | 33.63471 | -117.75587 | 25213 ft | 423 kts | 108° |
| 2026-05-05 17:01 | 33.62621 | -117.72198 | 25561 ft | 426 kts | 108° |
| 2026-05-05 17:02 | 33.61757 | -117.68783 | 25914 ft | 429 kts | 108° |
| 2026-05-05 17:02 | 33.60912 | -117.65334 | 26281 ft | 433 kts | 108° |
| 2026-05-05 17:02 | 33.60067 | -117.61851 | 26644 ft | 436 kts | 108° |
| 2026-05-05 17:02 | 33.59201 | -117.58348 | 26994 ft | 440 kts | 108° |
| 2026-05-05 17:03 | 33.58322 | -117.54824 | 27346 ft | 443 kts | 108° |
| 2026-05-05 17:03 | 33.57441 | -117.51276 | 27706 ft | 445 kts | 108° |
| 2026-05-05 17:03 | 33.56562 | -117.47713 | 28194 ft | 445 kts | 109° |
| 2026-05-05 17:03 | 33.55682 | -117.44159 | 28649 ft | 445 kts | 109° |
| 2026-05-05 17:04 | 33.54794 | -117.40601 | 29101 ft | 446 kts | 109° |
| 2026-05-05 17:04 | 33.53905 | -117.37037 | 29495 ft | 447 kts | 110° |
| 2026-05-05 17:04 | 33.53013 | -117.33459 | 29857 ft | 449 kts | 110° |
| 2026-05-05 17:04 | 33.52128 | -117.29912 | 30213 ft | 451 kts | 110° |
| 2026-05-05 17:05 | 33.51227 | -117.26306 | 30532 ft | 453 kts | 110° |
| 2026-05-05 17:05 | 33.50544 | -117.22609 | 30852 ft | 459 kts | 98° |
| 2026-05-05 17:05 | 33.50406 | -117.18780 | 31205 ft | 462 kts | 94° |
| 2026-05-05 17:05 | 33.50365 | -117.14924 | 31535 ft | 463 kts | 94° |
| 2026-05-05 17:06 | 33.50333 | -117.11066 | 31878 ft | 464 kts | 94° |
| 2026-05-05 17:06 | 33.50279 | -117.07191 | 32240 ft | 465 kts | 95° |
| 2026-05-05 17:06 | 33.50214 | -117.03312 | 32598 ft | 466 kts | 95° |
| 2026-05-05 17:06 | 33.50157 | -116.99424 | 32950 ft | 466 kts | 94° |
| 2026-05-05 17:07 | 33.50073 | -116.92972 | 32998 ft | 465 kts | 95° |
| 2026-05-05 17:07 | 33.49951 | -116.85254 | 32996 ft | 463 kts | 95° |
| 2026-05-05 17:08 | 33.49829 | -116.77477 | 32997 ft | 468 kts | 95° |
| 2026-05-05 17:08 | 33.49702 | -116.69682 | 32977 ft | 468 kts | 95° |
| 2026-05-05 17:09 | 33.49569 | -116.61942 | 32960 ft | 468 kts | 95° |
| 2026-05-05 17:09 | 33.49431 | -116.54130 | 32961 ft | 473 kts | 96° |
| 2026-05-05 17:10 | 33.49287 | -116.46227 | 32951 ft | 475 kts | 96° |
| 2026-05-05 17:10 | 33.49147 | -116.38318 | 32960 ft | 475 kts | 96° |
| 2026-05-05 17:11 | 33.49047 | -116.30414 | 32946 ft | 474 kts | 96° |
| 2026-05-05 17:11 | 33.48916 | -116.22516 | 32950 ft | 476 kts | 97° |
| 2026-05-05 17:12 | 33.48794 | -116.14569 | 32953 ft | 477 kts | 97° |
| 2026-05-05 17:12 | 33.48666 | -116.06686 | 32951 ft | 478 kts | 95° |
| 2026-05-05 17:13 | 33.48992 | -116.02698 | 32961 ft | 486 kts | 82° |
| 2026-05-05 17:13 | 33.49945 | -115.98801 | 32952 ft | 489 kts | 73° |
| 2026-05-05 17:13 | 33.52222 | -115.91102 | 32940 ft | 493 kts | 73° |
| 2026-05-05 17:14 | 33.54482 | -115.83339 | 32944 ft | 493 kts | 73° |
| 2026-05-05 17:14 | 33.56745 | -115.75573 | 32939 ft | 494 kts | 73° |
| 2026-05-05 17:15 | 33.58992 | -115.67845 | 32939 ft | 493 kts | 73° |
| 2026-05-05 17:15 | 33.61181 | -115.60046 | 32930 ft | 494 kts | 81° |
| 2026-05-05 17:16 | 33.61673 | -115.56009 | 32940 ft | 485 kts | 95° |
| 2026-05-05 17:16 | 33.61642 | -115.52001 | 32861 ft | 480 kts | 98° |
| 2026-05-05 17:16 | 33.61540 | -115.48006 | 32571 ft | 476 kts | 99° |
| 2026-05-05 17:16 | 33.61432 | -115.44071 | 32482 ft | 469 kts | 98° |
| 2026-05-05 17:17 | 33.61337 | -115.40149 | 32282 ft | 470 kts | 98° |
| 2026-05-05 17:17 | 33.61246 | -115.36240 | 32016 ft | 469 kts | 98° |
| 2026-05-05 17:17 | 33.61151 | -115.32328 | 31772 ft | 468 kts | 99° |
| 2026-05-05 17:17 | 33.61051 | -115.28483 | 31533 ft | 468 kts | 99° |
| 2026-05-05 17:18 | 33.60948 | -115.24582 | 31287 ft | 467 kts | 99° |
| 2026-05-05 17:18 | 33.60848 | -115.20686 | 31053 ft | 467 kts | 99° |
| 2026-05-05 17:18 | 33.60748 | -115.16789 | 30820 ft | 467 kts | 99° |
| 2026-05-05 17:18 | 33.60644 | -115.12901 | 30592 ft | 467 kts | 99° |
| 2026-05-05 17:19 | 33.60539 | -115.09010 | 30362 ft | 466 kts | 99° |
| 2026-05-05 17:19 | 33.60433 | -115.05130 | 30140 ft | 466 kts | 99° |
| 2026-05-05 17:19 | 33.60327 | -115.01250 | 29984 ft | 465 kts | 98° |
| 2026-05-05 17:19 | 33.60220 | -114.97360 | 29680 ft | 470 kts | 99° |
| 2026-05-05 17:20 | 33.60106 | -114.93433 | 29438 ft | 472 kts | 99° |
| 2026-05-05 17:20 | 33.59995 | -114.89502 | 29197 ft | 471 kts | 98° |
| 2026-05-05 17:20 | 33.59885 | -114.85579 | 28959 ft | 470 kts | 98° |
| 2026-05-05 17:20 | 33.59773 | -114.81715 | 28729 ft | 470 kts | 98° |
| 2026-05-05 17:21 | 33.59643 | -114.77752 | 28485 ft | 467 kts | 101° |
| 2026-05-05 17:21 | 33.59197 | -114.74000 | 28265 ft | 457 kts | 110° |
| 2026-05-05 17:21 | 33.58476 | -114.70293 | 28029 ft | 455 kts | 110° |
| 2026-05-05 17:22 | 33.57046 | -114.62917 | 27563 ft | 454 kts | 110° |
| 2026-05-05 17:22 | 33.56333 | -114.59235 | 27336 ft | 453 kts | 110° |
| 2026-05-05 17:22 | 33.55616 | -114.55567 | 27107 ft | 452 kts | 109° |
| 2026-05-05 17:22 | 33.54898 | -114.51902 | 26871 ft | 451 kts | 109° |
| 2026-05-05 17:23 | 33.54186 | -114.48252 | 26545 ft | 446 kts | 109° |
| 2026-05-05 17:23 | 33.53492 | -114.44682 | 26382 ft | 434 kts | 109° |
| 2026-05-05 17:23 | 33.52818 | -114.41240 | 26126 ft | 425 kts | 109° |
| 2026-05-05 17:23 | 33.52143 | -114.37827 | 25749 ft | 419 kts | 109° |
| 2026-05-05 17:24 | 33.51475 | -114.34447 | 25336 ft | 414 kts | 109° |
| 2026-05-05 17:24 | 33.50817 | -114.31101 | 24978 ft | 409 kts | 108° |
| 2026-05-05 17:24 | 33.50175 | -114.27831 | 24921 ft | 398 kts | 108° |
| 2026-05-05 17:24 | 33.49539 | -114.24616 | 24912 ft | 396 kts | 108° |
| 2026-05-05 17:25 | 33.48900 | -114.21413 | 24918 ft | 395 kts | 108° |
| 2026-05-05 17:25 | 33.48481 | -114.19298 | 24917 ft | 395 kts | 108° |
| 2026-05-05 17:25 | 33.47634 | -114.15020 | 24917 ft | 394 kts | 108° |
| 2026-05-05 17:25 | 33.47010 | -114.11879 | 24922 ft | 393 kts | 108° |
| 2026-05-05 17:26 | 33.46376 | -114.08698 | 24914 ft | 393 kts | 109° |
| 2026-05-05 17:26 | 33.45741 | -114.05517 | 24922 ft | 393 kts | 110° |
| 2026-05-05 17:26 | 33.45102 | -114.02317 | 24929 ft | 396 kts | 110° |
| 2026-05-05 17:26 | 33.44459 | -113.99110 | 24913 ft | 396 kts | 110° |
| 2026-05-05 17:27 | 33.43816 | -113.95905 | 24930 ft | 395 kts | 110° |
| 2026-05-05 17:27 | 33.43174 | -113.92709 | 24939 ft | 395 kts | 110° |
| 2026-05-05 17:27 | 33.42529 | -113.89514 | 24949 ft | 395 kts | 110° |
| 2026-05-05 17:27 | 33.41877 | -113.86323 | 24948 ft | 395 kts | 110° |
| 2026-05-05 17:28 | 33.41243 | -113.83173 | 24959 ft | 395 kts | 110° |
| 2026-05-05 17:28 | 33.40603 | -113.79970 | 24960 ft | 395 kts | 110° |
| 2026-05-05 17:28 | 33.39962 | -113.76780 | 24969 ft | 395 kts | 110° |
| 2026-05-05 17:28 | 33.39314 | -113.73580 | 24963 ft | 395 kts | 110° |
| 2026-05-05 17:29 | 33.38662 | -113.70367 | 24967 ft | 402 kts | 112° |
| 2026-05-05 17:29 | 33.37989 | -113.67074 | 24973 ft | 409 kts | 112° |
| 2026-05-05 17:29 | 33.37327 | -113.63773 | 24974 ft | 408 kts | 112° |
| 2026-05-05 17:29 | 33.36663 | -113.60473 | 24935 ft | 408 kts | 112° |
| 2026-05-05 17:30 | 33.35987 | -113.57168 | 24495 ft | 410 kts | 111° |
| 2026-05-05 17:30 | 33.35316 | -113.53894 | 24004 ft | 411 kts | 111° |
| 2026-05-05 17:30 | 33.34641 | -113.50574 | 23495 ft | 411 kts | 110° |
| 2026-05-05 17:30 | 33.33968 | -113.47260 | 22900 ft | 410 kts | 110° |
| 2026-05-05 17:31 | 33.33374 | -113.43932 | 22406 ft | 407 kts | 107° |
| 2026-05-05 17:31 | 33.32804 | -113.40638 | 21919 ft | 402 kts | 108° |
| 2026-05-05 17:31 | 33.32224 | -113.37390 | 21483 ft | 397 kts | 108° |
| 2026-05-05 17:31 | 33.31665 | -113.34176 | 21047 ft | 393 kts | 107° |
| 2026-05-05 17:32 | 33.31121 | -113.30985 | 20621 ft | 389 kts | 107° |
| 2026-05-05 17:32 | 33.30578 | -113.27833 | 20179 ft | 385 kts | 107° |
| 2026-05-05 17:32 | 33.30034 | -113.24721 | 19850 ft | 379 kts | 107° |
| 2026-05-05 17:32 | 33.29590 | -113.21848 | 19590 ft | 377 kts | 103° |
| 2026-05-05 17:33 | 33.29156 | -113.18772 | 19305 ft | 374 kts | 105° |
| 2026-05-05 17:33 | 33.28694 | -113.15766 | 19012 ft | 371 kts | 105° |
| 2026-05-05 17:33 | 33.28250 | -113.12742 | 18724 ft | 368 kts | 104° |
| 2026-05-05 17:33 | 33.27830 | -113.09736 | 18426 ft | 365 kts | 104° |
| 2026-05-05 17:34 | 33.27468 | -113.06741 | 18132 ft | 366 kts | 96° |
| 2026-05-05 17:34 | 33.27481 | -113.03681 | 17848 ft | 369 kts | 92° |
| 2026-05-05 17:34 | 33.27581 | -113.00618 | 17566 ft | 369 kts | 91° |
| 2026-05-05 17:34 | 33.27686 | -112.97563 | 17298 ft | 367 kts | 92° |
| 2026-05-05 17:35 | 33.27757 | -112.94525 | 17053 ft | 365 kts | 92° |
| 2026-05-05 17:35 | 33.27819 | -112.91495 | 16783 ft | 364 kts | 92° |
| 2026-05-05 17:35 | 33.27893 | -112.88484 | 16505 ft | 361 kts | 92° |
| 2026-05-05 17:35 | 33.27971 | -112.85556 | 16231 ft | 354 kts | 92° |
| 2026-05-05 17:36 | 33.28049 | -112.82646 | 15959 ft | 348 kts | 90° |
| 2026-05-05 17:36 | 33.28300 | -112.79780 | 15691 ft | 346 kts | 87° |
| 2026-05-05 17:36 | 33.28552 | -112.76935 | 15421 ft | 343 kts | 88° |
| 2026-05-05 17:36 | 33.28803 | -112.74108 | 15166 ft | 341 kts | 88° |
| 2026-05-05 17:37 | 33.29072 | -112.71293 | 14890 ft | 340 kts | 88° |
| 2026-05-05 17:37 | 33.29342 | -112.68500 | 14644 ft | 337 kts | 88° |
| 2026-05-05 17:37 | 33.29602 | -112.65720 | 14383 ft | 336 kts | 88° |
| 2026-05-05 17:37 | 33.29853 | -112.62992 | 14127 ft | 334 kts | 88° |
| 2026-05-05 17:38 | 33.30109 | -112.60241 | 13869 ft | 332 kts | 88° |
| 2026-05-05 17:38 | 33.30365 | -112.57504 | 13590 ft | 330 kts | 88° |
| 2026-05-05 17:38 | 33.30618 | -112.54783 | 13321 ft | 328 kts | 88° |
| 2026-05-05 17:38 | 33.30867 | -112.52078 | 13056 ft | 327 kts | 88° |
| 2026-05-05 17:39 | 33.31115 | -112.49382 | 12809 ft | 325 kts | 88° |
| 2026-05-05 17:39 | 33.31362 | -112.46704 | 12558 ft | 323 kts | 87° |
| 2026-05-05 17:39 | 33.31607 | -112.44064 | 12294 ft | 315 kts | 88° |
| 2026-05-05 17:39 | 33.31842 | -112.41504 | 12047 ft | 308 kts | 88° |
| 2026-05-05 17:40 | 33.32067 | -112.39007 | 11825 ft | 307 kts | 88° |
| 2026-05-05 17:40 | 33.32294 | -112.36518 | 11594 ft | 305 kts | 88° |
| 2026-05-05 17:40 | 33.32524 | -112.33992 | 11360 ft | 303 kts | 88° |
| 2026-05-05 17:40 | 33.32753 | -112.31508 | 11137 ft | 300 kts | 87° |
| 2026-05-05 17:41 | 33.32979 | -112.29040 | 10881 ft | 293 kts | 87° |
| 2026-05-05 17:41 | 33.33195 | -112.26684 | 10661 ft | 284 kts | 88° |
| 2026-05-05 17:41 | 33.33408 | -112.24298 | 10444 ft | 290 kts | 87° |
| 2026-05-05 17:41 | 33.33624 | -112.21910 | 10220 ft | 288 kts | 87° |
| 2026-05-05 17:42 | 33.33840 | -112.19540 | 9993 ft | 286 kts | 87° |
| 2026-05-05 17:42 | 33.34053 | -112.17197 | 9751 ft | 280 kts | 87° |
| 2026-05-05 17:42 | 33.34256 | -112.14935 | 9519 ft | 275 kts | 87° |
| 2026-05-05 17:42 | 33.34458 | -112.12690 | 9290 ft | 269 kts | 89° |
| 2026-05-05 17:43 | 33.34654 | -112.10496 | 9084 ft | 263 kts | 88° |
| 2026-05-05 17:43 | 33.34751 | -112.08343 | 8857 ft | 255 kts | 96° |
| 2026-05-05 17:43 | 33.34720 | -112.06245 | 8729 ft | 249 kts | 95° |
| 2026-05-05 17:43 | 33.34698 | -112.04175 | 8481 ft | 249 kts | 95° |
| 2026-05-05 17:44 | 33.34674 | -112.02111 | 8179 ft | 249 kts | 95° |
| 2026-05-05 17:44 | 33.34645 | -112.00017 | 7852 ft | 255 kts | 95° |
| 2026-05-05 17:44 | 33.34616 | -111.97882 | 7502 ft | 260 kts | 94° |
| 2026-05-05 17:44 | 33.34590 | -111.95713 | 7172 ft | 263 kts | 94° |
| 2026-05-05 17:45 | 33.34562 | -111.93551 | 6829 ft | 264 kts | 93° |
| 2026-05-05 17:45 | 33.34531 | -111.91351 | 6495 ft | 265 kts | 93° |
| 2026-05-05 17:45 | 33.34497 | -111.89153 | 6129 ft | 261 kts | 93° |
| 2026-05-05 17:45 | 33.34465 | -111.87016 | 5779 ft | 253 kts | 93° |
| 2026-05-05 17:46 | 33.34434 | -111.84949 | 5480 ft | 239 kts | 92° |
| 2026-05-05 17:46 | 33.34408 | -111.83098 | 5187 ft | 210 kts | 93° |
| 2026-05-05 17:46 | 33.34382 | -111.81416 | 4906 ft | 195 kts | 93° |
| 2026-05-05 17:46 | 33.34357 | -111.79838 | 4637 ft | 184 kts | 94° |
| 2026-05-05 17:47 | 33.34334 | -111.78340 | 4379 ft | 178 kts | 93° |
| 2026-05-05 17:47 | 33.34774 | -111.77031 | 4159 ft | 176 kts | 37° |
| 2026-05-05 17:47 | 33.35918 | -111.76577 | 4069 ft | 176 kts | 3° |
| 2026-05-05 17:47 | 33.37128 | -111.76503 | 4029 ft | 172 kts | 360° |
| 2026-05-05 17:48 | 33.38335 | -111.76456 | 4033 ft | 175 kts | 359° |
| 2026-05-05 17:48 | 33.39558 | -111.76396 | 4027 ft | 175 kts | 0° |
| 2026-05-05 17:48 | 33.40780 | -111.76346 | 4030 ft | 176 kts | 359° |
| 2026-05-05 17:48 | 33.41965 | -111.76595 | 4026 ft | 173 kts | 334° |
| 2026-05-05 17:49 | 33.43126 | -111.77002 | 4031 ft | 175 kts | 341° |
| 2026-05-05 17:49 | 33.43968 | -111.77890 | 4041 ft | 161 kts | 290° |
| 2026-05-05 17:49 | 33.44180 | -111.79221 | 4021 ft | 164 kts | 271° |
| 2026-05-05 17:49 | 33.44213 | -111.80568 | 4037 ft | 163 kts | 272° |
| 2026-05-05 17:50 | 33.44425 | -111.81904 | 3916 ft | 164 kts | 269° |
| 2026-05-05 17:50 | 33.44214 | -111.83199 | 3758 ft | 159 kts | 253° |
| 2026-05-05 17:50 | 33.44037 | -111.84504 | 3542 ft | 156 kts | 266° |
| 2026-05-05 17:50 | 33.44049 | -111.85764 | 3360 ft | 149 kts | 268° |
| 2026-05-05 17:51 | 33.44067 | -111.87017 | 3155 ft | 148 kts | 267° |
| 2026-05-05 17:51 | 33.44070 | -111.88230 | 2962 ft | 147 kts | 267° |
| 2026-05-05 17:51 | 33.44069 | -111.89493 | 2756 ft | 151 kts | 269° |
| 2026-05-05 17:51 | 33.44073 | -111.90726 | 2565 ft | 147 kts | 268° |
| 2026-05-05 17:52 | 33.44074 | -111.91960 | 2372 ft | 149 kts | 269° |
| 2026-05-05 17:52 | 33.44076 | -111.93164 | 2177 ft | 148 kts | 268° |
| 2026-05-05 17:52 | 33.44075 | -111.94404 | 1996 ft | 149 kts | 270° |
| 2026-05-05 17:52 | 33.44078 | -111.95616 | 1767 ft | 138 kts | 268° |
| 2026-05-05 17:53 | 33.44080 | -111.96780 | 1601 ft | 149 kts | 272° |
| 2026-05-05 17:53 | 33.44078 | -111.97992 | 1391 ft | 137 kts | 269° |
| 2026-05-05 17:53 | 33.44083 | -111.99167 | 1175 ft | 143 kts | 271° |
| 2026-05-05 17:53 | 33.44078 | -112.00191 | 1137 ft | 87 kts | 270° |
| 2026-05-05 17:54 | 33.44085 | -112.00611 | 1131 ft | 23 kts | 270° |
| 2026-05-05 17:54 | 33.44082 | -112.00779 | 1133 ft | 19 kts | 268° |
| 2026-05-05 17:54 | 33.44083 | -112.00936 | 1132 ft | 18 kts | 264° |
| 2026-05-05 17:54 | 33.44061 | -112.01037 | 1136 ft | 0 kts | 239° |
| 2026-05-05 17:55 | 33.44057 | -112.01046 | 1134 ft | 3 kts | 237° |
| 2026-05-05 17:55 | 33.44020 | -112.01087 | 1138 ft | 13 kts | 215° |
| 2026-05-05 17:55 | 33.43951 | -112.01134 | 1134 ft | 0 kts | 192° |
| 2026-05-05 17:55 | 33.43941 | -112.01136 | 1134 ft | 6 kts | 188° |
| 2026-05-05 17:56 | 33.43908 | -112.01092 | 1136 ft | 12 kts | 105° |
| 2026-05-05 17:56 | 33.43902 | -112.00944 | 1132 ft | 24 kts | 90° |
| 2026-05-05 17:56 | 33.43900 | -112.00697 | 1132 ft | 35 kts | 91° |
| 2026-05-05 17:56 | 33.43891 | -112.00416 | 1132 ft | 21 kts | 100° |
| 2026-05-05 17:57 | 33.43860 | -112.00382 | 1133 ft | 1 kts | 165° |
| 2026-05-05 17:57 | 33.43808 | -112.00382 | 1134 ft | 12 kts | 181° |
| 2026-05-05 17:57 | 33.43763 | -112.00336 | 1136 ft | 8 kts | 90° |
| 2026-05-05 17:57 | 33.43766 | -112.00246 | 1135 ft | 6 kts | 91° |
| 2026-05-05 17:58 | 33.43766 | -112.00242 | 1135 ft | 0 kts | 91° |